sensor_id;sensor_type;location;lat;lon;timestamp;P1;durP1;ratioP1;P2;durP2;ratioP2
71462;SDS011;59266;52.608;13.260;2023-10-08T00:01:50;5.43;;;1.33;;
71462;SDS011;59266;52.608;13.260;2023-10-08T00:04:17;7.28;;;1.50;;
71462;SDS011;59266;52.608;13.260;2023-10-08T00:06:47;7.70;;;1.67;;
71462;SDS011;59266;52.608;13.260;2023-10-08T00:09:13;6.85;;;1.50;;
71462;SDS011;59266;52.608;13.260;2023-10-08T00:11:42;6.47;;;1.50;;
71462;SDS011;59266;52.608;13.260;2023-10-08T00:14:09;5.10;;;1.90;;
71462;SDS011;59266;52.608;13.260;2023-10-08T00:16:37;8.68;;;1.70;;
71462;SDS011;59266;52.608;13.260;2023-10-08T00:19:07;7.82;;;1.63;;
71462;SDS011;59266;52.608;13.260;2023-10-08T00:21:36;7.47;;;1.88;;
71462;SDS011;59266;52.608;13.260;2023-10-08T00:24:04;5.38;;;1.35;;
71462;SDS011;59266;52.608;13.260;2023-10-08T00:26:35;6.90;;;1.70;;
71462;SDS011;59266;52.608;13.260;2023-10-08T00:29:07;10.65;;;1.75;;
71462;SDS011;59266;52.608;13.260;2023-10-08T00:31:48;6.95;;;1.92;;
71462;SDS011;59266;52.608;13.260;2023-10-08T00:34:16;5.25;;;1.65;;
71462;SDS011;59266;52.608;13.260;2023-10-08T00:36:47;7.78;;;1.63;;
71462;SDS011;59266;52.608;13.260;2023-10-08T00:39:14;7.05;;;1.40;;
71462;SDS011;59266;52.608;13.260;2023-10-08T00:41:49;12.93;;;1.88;;
71462;SDS011;59266;52.608;13.260;2023-10-08T00:44:17;11.80;;;2.20;;
71462;SDS011;59266;52.608;13.260;2023-10-08T00:46:50;8.93;;;1.90;;
71462;SDS011;59266;52.608;13.260;2023-10-08T00:49:18;8.23;;;1.92;;
71462;SDS011;59266;52.608;13.260;2023-10-08T00:51:48;9.65;;;1.95;;
71462;SDS011;59266;52.608;13.260;2023-10-08T00:54:27;11.80;;;2.13;;
71462;SDS011;59266;52.608;13.260;2023-10-08T00:56:54;10.05;;;1.90;;
71462;SDS011;59266;52.608;13.260;2023-10-08T00:59:24;9.85;;;2.03;;
71462;SDS011;59266;52.608;13.260;2023-10-08T01:01:59;12.05;;;1.80;;
71462;SDS011;59266;52.608;13.260;2023-10-08T01:04:32;6.53;;;1.80;;
71462;SDS011;59266;52.608;13.260;2023-10-08T01:07:03;9.48;;;2.08;;
71462;SDS011;59266;52.608;13.260;2023-10-08T01:09:39;8.95;;;1.90;;
71462;SDS011;59266;52.608;13.260;2023-10-08T01:12:22;9.68;;;1.80;;
71462;SDS011;59266;52.608;13.260;2023-10-08T01:14:53;10.20;;;1.80;;
71462;SDS011;59266;52.608;13.260;2023-10-08T01:17:23;10.02;;;2.78;;
71462;SDS011;59266;52.608;13.260;2023-10-08T01:19:52;9.32;;;2.08;;
71462;SDS011;59266;52.608;13.260;2023-10-08T01:22:58;10.65;;;2.00;;
71462;SDS011;59266;52.608;13.260;2023-10-08T01:25:25;9.75;;;1.88;;
71462;SDS011;59266;52.608;13.260;2023-10-08T01:27:56;9.82;;;2.03;;
71462;SDS011;59266;52.608;13.260;2023-10-08T01:30:27;6.38;;;2.10;;
71462;SDS011;59266;52.608;13.260;2023-10-08T01:33:01;9.93;;;2.33;;
71462;SDS011;59266;52.608;13.260;2023-10-08T01:35:29;12.18;;;2.05;;
71462;SDS011;59266;52.608;13.260;2023-10-08T01:37:58;11.88;;;1.83;;
71462;SDS011;59266;52.608;13.260;2023-10-08T01:40:26;10.45;;;2.15;;
71462;SDS011;59266;52.608;13.260;2023-10-08T01:42:53;8.68;;;2.20;;
71462;SDS011;59266;52.608;13.260;2023-10-08T01:45:19;12.40;;;2.22;;
71462;SDS011;59266;52.608;13.260;2023-10-08T01:47:46;9.13;;;2.35;;
71462;SDS011;59266;52.608;13.260;2023-10-08T01:50:18;8.93;;;2.00;;
71462;SDS011;59266;52.608;13.260;2023-10-08T01:52:49;12.82;;;2.35;;
71462;SDS011;59266;52.608;13.260;2023-10-08T01:55:16;9.95;;;2.40;;
71462;SDS011;59266;52.608;13.260;2023-10-08T01:57:44;15.85;;;2.38;;
71462;SDS011;59266;52.608;13.260;2023-10-08T02:00:12;10.15;;;2.88;;
71462;SDS011;59266;52.608;13.260;2023-10-08T02:02:49;10.50;;;2.90;;
71462;SDS011;59266;52.608;13.260;2023-10-08T02:05:17;8.90;;;2.30;;
71462;SDS011;59266;52.608;13.260;2023-10-08T02:07:45;8.85;;;2.80;;
71462;SDS011;59266;52.608;13.260;2023-10-08T02:10:12;12.25;;;3.25;;
71462;SDS011;59266;52.608;13.260;2023-10-08T02:12:40;13.93;;;2.92;;
71462;SDS011;59266;52.608;13.260;2023-10-08T02:15:08;15.40;;;3.20;;
71462;SDS011;59266;52.608;13.260;2023-10-08T02:17:37;12.27;;;3.22;;
71462;SDS011;59266;52.608;13.260;2023-10-08T02:20:05;14.63;;;3.63;;
71462;SDS011;59266;52.608;13.260;2023-10-08T02:22:32;18.00;;;3.50;;
71462;SDS011;59266;52.608;13.260;2023-10-08T02:24:59;12.35;;;3.47;;
71462;SDS011;59266;52.608;13.260;2023-10-08T02:27:30;14.05;;;3.33;;
71462;SDS011;59266;52.608;13.260;2023-10-08T02:30:00;13.13;;;3.40;;
71462;SDS011;59266;52.608;13.260;2023-10-08T02:32:29;16.40;;;3.92;;
71462;SDS011;59266;52.608;13.260;2023-10-08T02:34:56;13.50;;;3.13;;
71462;SDS011;59266;52.608;13.260;2023-10-08T02:37:23;13.93;;;3.38;;
71462;SDS011;59266;52.608;13.260;2023-10-08T02:39:50;12.10;;;3.30;;
71462;SDS011;59266;52.608;13.260;2023-10-08T02:42:17;11.15;;;3.50;;
71462;SDS011;59266;52.608;13.260;2023-10-08T02:44:43;13.50;;;3.28;;
71462;SDS011;59266;52.608;13.260;2023-10-08T02:47:11;10.90;;;3.35;;
71462;SDS011;59266;52.608;13.260;2023-10-08T02:49:38;13.27;;;3.40;;
71462;SDS011;59266;52.608;13.260;2023-10-08T02:52:09;13.88;;;3.53;;
71462;SDS011;59266;52.608;13.260;2023-10-08T02:54:36;12.50;;;3.42;;
71462;SDS011;59266;52.608;13.260;2023-10-08T02:57:03;15.30;;;3.60;;
71462;SDS011;59266;52.608;13.260;2023-10-08T02:59:39;13.35;;;3.17;;
71462;SDS011;59266;52.608;13.260;2023-10-08T03:02:08;11.10;;;2.85;;
71462;SDS011;59266;52.608;13.260;2023-10-08T03:04:46;15.02;;;3.70;;
71462;SDS011;59266;52.608;13.260;2023-10-08T03:07:16;12.77;;;2.95;;
71462;SDS011;59266;52.608;13.260;2023-10-08T03:09:50;14.50;;;4.05;;
71462;SDS011;59266;52.608;13.260;2023-10-08T03:12:17;13.07;;;3.72;;
71462;SDS011;59266;52.608;13.260;2023-10-08T03:14:44;10.60;;;2.67;;
71462;SDS011;59266;52.608;13.260;2023-10-08T03:20:04;12.25;;;2.97;;
71462;SDS011;59266;52.608;13.260;2023-10-08T03:22:52;14.32;;;3.22;;
71462;SDS011;59266;52.608;13.260;2023-10-08T03:25:23;11.35;;;3.33;;
71462;SDS011;59266;52.608;13.260;2023-10-08T03:27:51;17.98;;;3.05;;
71462;SDS011;59266;52.608;13.260;2023-10-08T03:30:20;14.52;;;3.30;;
71462;SDS011;59266;52.608;13.260;2023-10-08T03:32:53;15.27;;;3.35;;
71462;SDS011;59266;52.608;13.260;2023-10-08T03:35:22;15.55;;;2.88;;
71462;SDS011;59266;52.608;13.260;2023-10-08T03:37:54;13.50;;;3.00;;
71462;SDS011;59266;52.608;13.260;2023-10-08T03:40:42;9.73;;;2.78;;
71462;SDS011;59266;52.608;13.260;2023-10-08T03:43:11;8.35;;;2.80;;
71462;SDS011;59266;52.608;13.260;2023-10-08T03:46:00;11.50;;;2.95;;
71462;SDS011;59266;52.608;13.260;2023-10-08T03:48:32;17.80;;;3.20;;
71462;SDS011;59266;52.608;13.260;2023-10-08T03:51:03;14.40;;;2.75;;
71462;SDS011;59266;52.608;13.260;2023-10-08T03:53:33;11.48;;;2.70;;
71462;SDS011;59266;52.608;13.260;2023-10-08T03:56:21;15.70;;;3.30;;
71462;SDS011;59266;52.608;13.260;2023-10-08T03:58:48;10.35;;;3.30;;
71462;SDS011;59266;52.608;13.260;2023-10-08T04:01:18;14.00;;;3.28;;
71462;SDS011;59266;52.608;13.260;2023-10-08T04:03:45;10.20;;;3.22;;
71462;SDS011;59266;52.608;13.260;2023-10-08T04:06:19;13.48;;;3.13;;
71462;SDS011;59266;52.608;13.260;2023-10-08T04:08:55;15.48;;;3.30;;
71462;SDS011;59266;52.608;13.260;2023-10-08T04:11:39;16.70;;;4.63;;
71462;SDS011;59266;52.608;13.260;2023-10-08T04:14:24;13.20;;;4.00;;
71462;SDS011;59266;52.608;13.260;2023-10-08T04:16:52;15.02;;;3.75;;
71462;SDS011;59266;52.608;13.260;2023-10-08T04:19:19;12.68;;;3.10;;
71462;SDS011;59266;52.608;13.260;2023-10-08T04:21:47;9.30;;;2.72;;
71462;SDS011;59266;52.608;13.260;2023-10-08T04:24:21;16.80;;;3.78;;
71462;SDS011;59266;52.608;13.260;2023-10-08T04:26:55;12.90;;;3.10;;
71462;SDS011;59266;52.608;13.260;2023-10-08T04:29:25;16.23;;;3.20;;
71462;SDS011;59266;52.608;13.260;2023-10-08T04:31:55;9.63;;;3.00;;
71462;SDS011;59266;52.608;13.260;2023-10-08T04:34:28;12.93;;;2.67;;
71462;SDS011;59266;52.608;13.260;2023-10-08T04:36:55;13.90;;;2.97;;
71462;SDS011;59266;52.608;13.260;2023-10-08T04:39:27;17.45;;;2.90;;
71462;SDS011;59266;52.608;13.260;2023-10-08T04:42:00;14.57;;;3.00;;
71462;SDS011;59266;52.608;13.260;2023-10-08T04:44:32;15.52;;;2.60;;
71462;SDS011;59266;52.608;13.260;2023-10-08T04:47:00;8.60;;;2.67;;
71462;SDS011;59266;52.608;13.260;2023-10-08T04:49:31;14.88;;;3.00;;
71462;SDS011;59266;52.608;13.260;2023-10-08T04:52:00;10.95;;;2.63;;
71462;SDS011;59266;52.608;13.260;2023-10-08T04:54:45;11.20;;;3.15;;
71462;SDS011;59266;52.608;13.260;2023-10-08T04:57:18;12.80;;;3.05;;
71462;SDS011;59266;52.608;13.260;2023-10-08T04:59:48;14.30;;;3.63;;
71462;SDS011;59266;52.608;13.260;2023-10-08T05:02:17;10.20;;;2.90;;
71462;SDS011;59266;52.608;13.260;2023-10-08T05:05:03;11.25;;;3.42;;
71462;SDS011;59266;52.608;13.260;2023-10-08T05:07:35;14.32;;;3.63;;
71462;SDS011;59266;52.608;13.260;2023-10-08T05:12:50;10.52;;;3.10;;
71462;SDS011;59266;52.608;13.260;2023-10-08T05:15:37;17.45;;;3.33;;
71462;SDS011;59266;52.608;13.260;2023-10-08T05:18:14;21.42;;;3.65;;
71462;SDS011;59266;52.608;13.260;2023-10-08T05:20:43;14.18;;;3.17;;
71462;SDS011;59266;52.608;13.260;2023-10-08T05:23:16;8.27;;;2.78;;
71462;SDS011;59266;52.608;13.260;2023-10-08T05:26:07;12.95;;;3.10;;
71462;SDS011;59266;52.608;13.260;2023-10-08T05:28:36;13.40;;;2.80;;
71462;SDS011;59266;52.608;13.260;2023-10-08T05:31:28;11.82;;;3.30;;
71462;SDS011;59266;52.608;13.260;2023-10-08T05:34:13;10.65;;;2.97;;
71462;SDS011;59266;52.608;13.260;2023-10-08T05:36:59;9.38;;;3.40;;
71462;SDS011;59266;52.608;13.260;2023-10-08T05:39:26;12.05;;;3.10;;
71462;SDS011;59266;52.608;13.260;2023-10-08T05:42:07;15.57;;;3.10;;
71462;SDS011;59266;52.608;13.260;2023-10-08T05:44:50;10.50;;;2.88;;
71462;SDS011;59266;52.608;13.260;2023-10-08T05:47:36;13.75;;;2.88;;
71462;SDS011;59266;52.608;13.260;2023-10-08T05:50:04;12.55;;;2.97;;
71462;SDS011;59266;52.608;13.260;2023-10-08T05:52:44;10.13;;;3.28;;
71462;SDS011;59266;52.608;13.260;2023-10-08T05:55:19;14.23;;;3.40;;
71462;SDS011;59266;52.608;13.260;2023-10-08T05:57:53;13.60;;;4.05;;
71462;SDS011;59266;52.608;13.260;2023-10-08T06:00:42;13.85;;;3.28;;
71462;SDS011;59266;52.608;13.260;2023-10-08T06:03:27;13.90;;;3.50;;
71462;SDS011;59266;52.608;13.260;2023-10-08T06:06:06;13.10;;;3.08;;
71462;SDS011;59266;52.608;13.260;2023-10-08T06:08:38;11.38;;;3.17;;
71462;SDS011;59266;52.608;13.260;2023-10-08T06:11:17;14.23;;;3.22;;
71462;SDS011;59266;52.608;13.260;2023-10-08T06:14:08;11.90;;;3.38;;
71462;SDS011;59266;52.608;13.260;2023-10-08T06:16:55;9.70;;;3.38;;
71462;SDS011;59266;52.608;13.260;2023-10-08T06:19:44;12.25;;;3.88;;
71462;SDS011;59266;52.608;13.260;2023-10-08T06:22:14;9.98;;;3.83;;
71462;SDS011;59266;52.608;13.260;2023-10-08T06:24:40;15.60;;;4.18;;
71462;SDS011;59266;52.608;13.260;2023-10-08T06:27:07;12.50;;;3.83;;
71462;SDS011;59266;52.608;13.260;2023-10-08T06:29:34;12.07;;;3.63;;
71462;SDS011;59266;52.608;13.260;2023-10-08T06:32:01;14.82;;;4.00;;
71462;SDS011;59266;52.608;13.260;2023-10-08T06:34:28;10.73;;;3.70;;
71462;SDS011;59266;52.608;13.260;2023-10-08T06:36:56;12.98;;;4.32;;
71462;SDS011;59266;52.608;13.260;2023-10-08T06:39:24;13.52;;;3.38;;
71462;SDS011;59266;52.608;13.260;2023-10-08T06:41:53;9.73;;;3.20;;
71462;SDS011;59266;52.608;13.260;2023-10-08T06:44:22;12.15;;;3.30;;
71462;SDS011;59266;52.608;13.260;2023-10-08T06:46:49;11.80;;;4.07;;
71462;SDS011;59266;52.608;13.260;2023-10-08T06:49:18;11.95;;;3.60;;
71462;SDS011;59266;52.608;13.260;2023-10-08T06:51:45;13.05;;;4.25;;
71462;SDS011;59266;52.608;13.260;2023-10-08T06:54:12;12.98;;;3.20;;
71462;SDS011;59266;52.608;13.260;2023-10-08T06:56:43;12.02;;;3.13;;
71462;SDS011;59266;52.608;13.260;2023-10-08T06:59:13;11.25;;;2.60;;
71462;SDS011;59266;52.608;13.260;2023-10-08T07:01:40;10.75;;;2.70;;
71462;SDS011;59266;52.608;13.260;2023-10-08T07:04:12;11.00;;;3.03;;
71462;SDS011;59266;52.608;13.260;2023-10-08T07:06:41;9.82;;;2.70;;
71462;SDS011;59266;52.608;13.260;2023-10-08T07:09:13;6.63;;;2.15;;
71462;SDS011;59266;52.608;13.260;2023-10-08T07:11:52;9.40;;;2.17;;
71462;SDS011;59266;52.608;13.260;2023-10-08T07:14:23;7.70;;;2.15;;
71462;SDS011;59266;52.608;13.260;2023-10-08T07:16:59;7.38;;;2.30;;
71462;SDS011;59266;52.608;13.260;2023-10-08T07:19:28;7.28;;;1.55;;
71462;SDS011;59266;52.608;13.260;2023-10-08T07:22:05;7.43;;;1.90;;
71462;SDS011;59266;52.608;13.260;2023-10-08T07:24:47;4.55;;;1.60;;
71462;SDS011;59266;52.608;13.260;2023-10-08T07:27:23;6.13;;;1.48;;
71462;SDS011;59266;52.608;13.260;2023-10-08T07:29:57;5.25;;;1.60;;
71462;SDS011;59266;52.608;13.260;2023-10-08T07:32:27;7.10;;;1.85;;
71462;SDS011;59266;52.608;13.260;2023-10-08T07:35:03;7.45;;;1.58;;
71462;SDS011;59266;52.608;13.260;2023-10-08T07:37:51;4.07;;;1.40;;
71462;SDS011;59266;52.608;13.260;2023-10-08T07:40:20;4.88;;;1.45;;
71462;SDS011;59266;52.608;13.260;2023-10-08T07:42:47;7.18;;;1.95;;
71462;SDS011;59266;52.608;13.260;2023-10-08T07:45:18;9.02;;;1.92;;
71462;SDS011;59266;52.608;13.260;2023-10-08T07:47:47;5.38;;;1.52;;
71462;SDS011;59266;52.608;13.260;2023-10-08T07:50:14;4.65;;;1.42;;
71462;SDS011;59266;52.608;13.260;2023-10-08T07:52:44;5.57;;;1.67;;
71462;SDS011;59266;52.608;13.260;2023-10-08T07:55:11;5.70;;;1.45;;
71462;SDS011;59266;52.608;13.260;2023-10-08T07:57:44;4.90;;;1.15;;
71462;SDS011;59266;52.608;13.260;2023-10-08T08:00:11;6.53;;;1.42;;
71462;SDS011;59266;52.608;13.260;2023-10-08T08:02:57;7.38;;;1.10;;
71462;SDS011;59266;52.608;13.260;2023-10-08T08:05:24;7.55;;;1.50;;
71462;SDS011;59266;52.608;13.260;2023-10-08T08:07:52;6.35;;;1.13;;
71462;SDS011;59266;52.608;13.260;2023-10-08T08:10:19;5.95;;;1.50;;
71462;SDS011;59266;52.608;13.260;2023-10-08T08:12:50;5.28;;;1.30;;
71462;SDS011;59266;52.608;13.260;2023-10-08T08:15:21;5.85;;;1.10;;
71462;SDS011;59266;52.608;13.260;2023-10-08T08:17:49;3.85;;;1.17;;
71462;SDS011;59266;52.608;13.260;2023-10-08T08:20:15;4.38;;;1.10;;
71462;SDS011;59266;52.608;13.260;2023-10-08T08:22:44;4.85;;;1.40;;
71462;SDS011;59266;52.608;13.260;2023-10-08T08:25:21;4.93;;;1.30;;
71462;SDS011;59266;52.608;13.260;2023-10-08T08:28:01;3.60;;;1.17;;
71462;SDS011;59266;52.608;13.260;2023-10-08T08:30:27;4.40;;;1.10;;
71462;SDS011;59266;52.608;13.260;2023-10-08T08:32:55;4.28;;;1.30;;
71462;SDS011;59266;52.608;13.260;2023-10-08T08:35:23;3.03;;;1.25;;
71462;SDS011;59266;52.608;13.260;2023-10-08T08:37:50;5.85;;;1.48;;
71462;SDS011;59266;52.608;13.260;2023-10-08T08:40:18;4.45;;;1.10;;
71462;SDS011;59266;52.608;13.260;2023-10-08T08:42:45;3.63;;;1.00;;
71462;SDS011;59266;52.608;13.260;2023-10-08T08:45:13;4.55;;;1.13;;
71462;SDS011;59266;52.608;13.260;2023-10-08T08:47:53;5.10;;;1.30;;
71462;SDS011;59266;52.608;13.260;2023-10-08T08:50:22;7.05;;;1.50;;
71462;SDS011;59266;52.608;13.260;2023-10-08T08:52:49;5.63;;;1.08;;
71462;SDS011;59266;52.608;13.260;2023-10-08T08:55:18;3.58;;;1.05;;
71462;SDS011;59266;52.608;13.260;2023-10-08T08:57:48;5.18;;;1.10;;
71462;SDS011;59266;52.608;13.260;2023-10-08T09:00:16;5.43;;;1.10;;
71462;SDS011;59266;52.608;13.260;2023-10-08T09:02:45;4.75;;;1.10;;
71462;SDS011;59266;52.608;13.260;2023-10-08T09:05:15;4.85;;;1.02;;
71462;SDS011;59266;52.608;13.260;2023-10-08T09:10:23;4.70;;;1.02;;
71462;SDS011;59266;52.608;13.260;2023-10-08T09:12:54;2.92;;;1.00;;
71462;SDS011;59266;52.608;13.260;2023-10-08T09:15:26;3.22;;;1.00;;
71462;SDS011;59266;52.608;13.260;2023-10-08T09:17:53;5.43;;;1.10;;
71462;SDS011;59266;52.608;13.260;2023-10-08T09:20:23;4.20;;;1.10;;
71462;SDS011;59266;52.608;13.260;2023-10-08T09:25:34;6.35;;;1.38;;
71462;SDS011;59266;52.608;13.260;2023-10-08T09:28:03;4.13;;;1.17;;
71462;SDS011;59266;52.608;13.260;2023-10-08T09:30:45;4.70;;;1.10;;
71462;SDS011;59266;52.608;13.260;2023-10-08T09:33:12;3.75;;;0.98;;
71462;SDS011;59266;52.608;13.260;2023-10-08T09:35:40;6.15;;;1.08;;
71462;SDS011;59266;52.608;13.260;2023-10-08T09:38:21;3.40;;;1.00;;
71462;SDS011;59266;52.608;13.260;2023-10-08T09:40:51;4.32;;;0.90;;
71462;SDS011;59266;52.608;13.260;2023-10-08T09:43:19;4.40;;;1.10;;
71462;SDS011;59266;52.608;13.260;2023-10-08T09:45:48;5.25;;;1.27;;
71462;SDS011;59266;52.608;13.260;2023-10-08T09:48:33;4.40;;;1.23;;
71462;SDS011;59266;52.608;13.260;2023-10-08T09:51:03;4.53;;;1.10;;
71462;SDS011;59266;52.608;13.260;2023-10-08T09:53:52;5.57;;;1.13;;
71462;SDS011;59266;52.608;13.260;2023-10-08T09:56:28;3.65;;;1.30;;
71462;SDS011;59266;52.608;13.260;2023-10-08T09:58:58;3.50;;;0.90;;
71462;SDS011;59266;52.608;13.260;2023-10-08T10:01:25;1.95;;;0.70;;
71462;SDS011;59266;52.608;13.260;2023-10-08T10:03:53;4.07;;;1.10;;
71462;SDS011;59266;52.608;13.260;2023-10-08T10:06:20;3.03;;;0.95;;
71462;SDS011;59266;52.608;13.260;2023-10-08T10:08:47;4.40;;;0.90;;
71462;SDS011;59266;52.608;13.260;2023-10-08T10:11:25;3.13;;;0.90;;
71462;SDS011;59266;52.608;13.260;2023-10-08T10:14:40;2.50;;;0.70;;
71462;SDS011;59266;52.608;13.260;2023-10-08T10:17:17;2.42;;;0.93;;
71462;SDS011;59266;52.608;13.260;2023-10-08T10:20:07;4.78;;;0.90;;
71462;SDS011;59266;52.608;13.260;2023-10-08T10:22:41;2.72;;;0.85;;
71462;SDS011;59266;52.608;13.260;2023-10-08T10:25:10;3.90;;;1.00;;
71462;SDS011;59266;52.608;13.260;2023-10-08T10:30:21;3.28;;;0.93;;
71462;SDS011;59266;52.608;13.260;2023-10-08T10:32:53;4.05;;;0.80;;
71462;SDS011;59266;52.608;13.260;2023-10-08T10:35:21;4.40;;;0.98;;
71462;SDS011;59266;52.608;13.260;2023-10-08T10:37:50;2.35;;;0.80;;
71462;SDS011;59266;52.608;13.260;2023-10-08T10:40:22;5.45;;;1.20;;
71462;SDS011;59266;52.608;13.260;2023-10-08T10:42:56;2.78;;;0.90;;
71462;SDS011;59266;52.608;13.260;2023-10-08T10:45:23;5.53;;;1.00;;
71462;SDS011;59266;52.608;13.260;2023-10-08T10:48:06;5.40;;;1.00;;
71462;SDS011;59266;52.608;13.260;2023-10-08T10:50:46;3.42;;;1.00;;
71462;SDS011;59266;52.608;13.260;2023-10-08T10:53:32;2.80;;;0.98;;
71462;SDS011;59266;52.608;13.260;2023-10-08T10:55:59;3.53;;;0.98;;
71462;SDS011;59266;52.608;13.260;2023-10-08T10:58:41;2.42;;;0.95;;
71462;SDS011;59266;52.608;13.260;2023-10-08T11:01:08;1.88;;;0.80;;
71462;SDS011;59266;52.608;13.260;2023-10-08T11:03:51;4.53;;;0.93;;
71462;SDS011;59266;52.608;13.260;2023-10-08T11:06:19;3.08;;;0.80;;
71462;SDS011;59266;52.608;13.260;2023-10-08T11:09:23;2.03;;;0.90;;
71462;SDS011;59266;52.608;13.260;2023-10-08T11:12:14;2.75;;;1.02;;
71462;SDS011;59266;52.608;13.260;2023-10-08T11:14:54;4.43;;;0.98;;
71462;SDS011;59266;52.608;13.260;2023-10-08T11:17:26;2.63;;;0.90;;
71462;SDS011;59266;52.608;13.260;2023-10-08T11:20:04;4.22;;;0.93;;
71462;SDS011;59266;52.608;13.260;2023-10-08T11:22:55;4.82;;;0.90;;
71462;SDS011;59266;52.608;13.260;2023-10-08T11:25:23;3.22;;;0.95;;
71462;SDS011;59266;52.608;13.260;2023-10-08T11:28:00;2.88;;;0.80;;
71462;SDS011;59266;52.608;13.260;2023-10-08T11:30:53;4.10;;;0.90;;
71462;SDS011;59266;52.608;13.260;2023-10-08T11:33:20;3.63;;;0.95;;
71462;SDS011;59266;52.608;13.260;2023-10-08T11:38:37;3.25;;;0.82;;
71462;SDS011;59266;52.608;13.260;2023-10-08T11:41:11;4.13;;;1.00;;
71462;SDS011;59266;52.608;13.260;2023-10-08T11:43:48;3.72;;;0.85;;
71462;SDS011;59266;52.608;13.260;2023-10-08T11:46:28;3.97;;;0.77;;
71462;SDS011;59266;52.608;13.260;2023-10-08T11:49:05;3.70;;;1.00;;
71462;SDS011;59266;52.608;13.260;2023-10-08T11:51:32;3.25;;;0.80;;
71462;SDS011;59266;52.608;13.260;2023-10-08T11:54:01;2.83;;;0.82;;
71462;SDS011;59266;52.608;13.260;2023-10-08T11:56:29;2.40;;;0.80;;
71462;SDS011;59266;52.608;13.260;2023-10-08T11:58:59;3.42;;;0.80;;
71462;SDS011;59266;52.608;13.260;2023-10-08T12:01:32;3.20;;;0.88;;
71462;SDS011;59266;52.608;13.260;2023-10-08T12:04:02;4.55;;;1.20;;
71462;SDS011;59266;52.608;13.260;2023-10-08T12:06:29;5.07;;;1.10;;
71462;SDS011;59266;52.608;13.260;2023-10-08T12:08:57;4.75;;;1.00;;
71462;SDS011;59266;52.608;13.260;2023-10-08T12:11:28;2.78;;;0.70;;
71462;SDS011;59266;52.608;13.260;2023-10-08T12:16:27;2.55;;;0.88;;
71462;SDS011;59266;52.608;13.260;2023-10-08T12:18:56;2.88;;;0.77;;
71462;SDS011;59266;52.608;13.260;2023-10-08T12:21:29;3.70;;;0.80;;
71462;SDS011;59266;52.608;13.260;2023-10-08T12:23:59;3.15;;;0.90;;
71462;SDS011;59266;52.608;13.260;2023-10-08T12:26:32;3.08;;;0.70;;
71462;SDS011;59266;52.608;13.260;2023-10-08T12:29:08;3.15;;;0.88;;
71462;SDS011;59266;52.608;13.260;2023-10-08T12:31:43;2.00;;;0.70;;
71462;SDS011;59266;52.608;13.260;2023-10-08T12:34:14;1.83;;;0.60;;
71462;SDS011;59266;52.608;13.260;2023-10-08T12:36:41;2.83;;;0.65;;
71462;SDS011;59266;52.608;13.260;2023-10-08T12:39:09;2.80;;;0.77;;
71462;SDS011;59266;52.608;13.260;2023-10-08T12:41:42;2.33;;;0.70;;
71462;SDS011;59266;52.608;13.260;2023-10-08T12:44:14;2.22;;;0.60;;
71462;SDS011;59266;52.608;13.260;2023-10-08T12:46:42;5.13;;;1.13;;
71462;SDS011;59266;52.608;13.260;2023-10-08T12:49:10;2.35;;;0.70;;
71462;SDS011;59266;52.608;13.260;2023-10-08T12:51:38;2.63;;;0.60;;
71462;SDS011;59266;52.608;13.260;2023-10-08T12:54:11;2.45;;;0.93;;
71462;SDS011;59266;52.608;13.260;2023-10-08T12:59:23;2.25;;;0.75;;
71462;SDS011;59266;52.608;13.260;2023-10-08T13:01:51;3.22;;;0.90;;
71462;SDS011;59266;52.608;13.260;2023-10-08T13:04:22;3.97;;;0.80;;
71462;SDS011;59266;52.608;13.260;2023-10-08T13:07:01;2.85;;;0.80;;
71462;SDS011;59266;52.608;13.260;2023-10-08T13:09:30;2.08;;;0.77;;
71462;SDS011;59266;52.608;13.260;2023-10-08T13:12:09;4.18;;;1.42;;
71462;SDS011;59266;52.608;13.260;2023-10-08T13:17:18;2.72;;;0.90;;
71462;SDS011;59266;52.608;13.260;2023-10-08T13:19:49;2.80;;;0.80;;
71462;SDS011;59266;52.608;13.260;2023-10-08T13:22:17;4.50;;;0.90;;
71462;SDS011;59266;52.608;13.260;2023-10-08T13:24:46;2.85;;;0.60;;
71462;SDS011;59266;52.608;13.260;2023-10-08T13:27:16;2.83;;;0.70;;
71462;SDS011;59266;52.608;13.260;2023-10-08T13:29:49;1.58;;;0.50;;
71462;SDS011;59266;52.608;13.260;2023-10-08T13:32:25;3.10;;;0.70;;
71462;SDS011;59266;52.608;13.260;2023-10-08T13:35:02;2.53;;;0.70;;
71462;SDS011;59266;52.608;13.260;2023-10-08T13:37:36;2.78;;;0.90;;
71462;SDS011;59266;52.608;13.260;2023-10-08T13:40:04;4.70;;;0.85;;
71462;SDS011;59266;52.608;13.260;2023-10-08T13:42:32;3.08;;;0.70;;
71462;SDS011;59266;52.608;13.260;2023-10-08T13:44:59;1.85;;;0.60;;
71462;SDS011;59266;52.608;13.260;2023-10-08T13:47:26;4.50;;;1.13;;
71462;SDS011;59266;52.608;13.260;2023-10-08T13:49:55;3.03;;;0.73;;
71462;SDS011;59266;52.608;13.260;2023-10-08T13:52:25;4.90;;;0.98;;
71462;SDS011;59266;52.608;13.260;2023-10-08T13:54:53;2.67;;;0.73;;
71462;SDS011;59266;52.608;13.260;2023-10-08T13:57:19;3.63;;;0.90;;
71462;SDS011;59266;52.608;13.260;2023-10-08T14:00:02;3.88;;;0.95;;
71462;SDS011;59266;52.608;13.260;2023-10-08T14:02:41;2.70;;;0.60;;
71462;SDS011;59266;52.608;13.260;2023-10-08T14:05:21;4.05;;;1.00;;
71462;SDS011;59266;52.608;13.260;2023-10-08T14:08:11;5.45;;;1.10;;
71462;SDS011;59266;52.608;13.260;2023-10-08T14:10:44;3.30;;;0.77;;
71462;SDS011;59266;52.608;13.260;2023-10-08T14:13:32;2.90;;;0.88;;
71462;SDS011;59266;52.608;13.260;2023-10-08T14:15:59;4.38;;;1.00;;
71462;SDS011;59266;52.608;13.260;2023-10-08T14:18:28;3.38;;;0.80;;
71462;SDS011;59266;52.608;13.260;2023-10-08T14:20:55;5.35;;;0.85;;
71462;SDS011;59266;52.608;13.260;2023-10-08T14:23:23;3.33;;;0.98;;
71462;SDS011;59266;52.608;13.260;2023-10-08T14:25:52;2.50;;;0.63;;
71462;SDS011;59266;52.608;13.260;2023-10-08T14:28:25;3.47;;;1.00;;
71462;SDS011;59266;52.608;13.260;2023-10-08T14:31:07;3.67;;;1.08;;
71462;SDS011;59266;52.608;13.260;2023-10-08T14:33:35;4.40;;;1.05;;
71462;SDS011;59266;52.608;13.260;2023-10-08T14:36:09;2.97;;;0.90;;
71462;SDS011;59266;52.608;13.260;2023-10-08T14:38:55;7.25;;;1.05;;
71462;SDS011;59266;52.608;13.260;2023-10-08T14:41:40;3.58;;;1.00;;
71462;SDS011;59266;52.608;13.260;2023-10-08T14:44:26;3.03;;;0.82;;
71462;SDS011;59266;52.608;13.260;2023-10-08T14:46:54;4.47;;;1.00;;
71462;SDS011;59266;52.608;13.260;2023-10-08T14:49:22;3.60;;;0.80;;
71462;SDS011;59266;52.608;13.260;2023-10-08T14:51:49;3.55;;;0.80;;
71462;SDS011;59266;52.608;13.260;2023-10-08T14:54:19;4.53;;;0.80;;
71462;SDS011;59266;52.608;13.260;2023-10-08T14:56:48;2.28;;;0.70;;
71462;SDS011;59266;52.608;13.260;2023-10-08T14:59:15;4.05;;;0.82;;
71462;SDS011;59266;52.608;13.260;2023-10-08T15:01:44;3.83;;;0.90;;
71462;SDS011;59266;52.608;13.260;2023-10-08T15:04:11;4.15;;;0.80;;
71462;SDS011;59266;52.608;13.260;2023-10-08T15:06:40;2.88;;;0.80;;
71462;SDS011;59266;52.608;13.260;2023-10-08T15:09:07;2.65;;;0.90;;
71462;SDS011;59266;52.608;13.260;2023-10-08T15:11:45;2.13;;;0.80;;
71462;SDS011;59266;52.608;13.260;2023-10-08T15:14:12;3.65;;;0.90;;
71462;SDS011;59266;52.608;13.260;2023-10-08T15:16:42;2.90;;;0.93;;
71462;SDS011;59266;52.608;13.260;2023-10-08T15:19:10;4.05;;;0.80;;
71462;SDS011;59266;52.608;13.260;2023-10-08T15:21:38;3.30;;;0.73;;
71462;SDS011;59266;52.608;13.260;2023-10-08T15:24:07;2.70;;;0.70;;
71462;SDS011;59266;52.608;13.260;2023-10-08T15:26:39;3.05;;;0.70;;